Terminal Aerodrome Forecast
Issued by NWS Portland, ME

Current Version | Previous Version | Text Only | Print | Product List | Glossary On
Versions: 1 2 3 4 5 6 7 8 9 10 11 12 13 14 15 16 17 18 19 20 21 22 23 24 25 26 27 28 29 30
000
FTUS41 KGYX 241159 AAA
TAFCON
TAF AMD
KCON 241159Z 2412/2512 27010KT P6SM FEW035
     FM241500 31010KT P6SM FEW250
     FM250400 04004KT P6SM FEW250
     FM251000 09007KT P6SM -SN BKN045
     FM251100 09008KT P6SM -SN OVC025=

USA.gov is the U.S. government's official web portal to all federal, state and local government web resources and services.